createdAt,value
2019-06-07T00:01:36.414Z,79.77
2019-06-07T00:06:39.948Z,79.86
2019-06-07T00:11:43.127Z,79.93
2019-06-07T00:16:46.735Z,80.55
2019-06-07T00:26:58.778Z,80.31
2019-06-07T00:32:00.088Z,80.15
2019-06-07T00:37:03.927Z,80.44
2019-06-07T00:42:06.940Z,80.19
2019-06-07T00:47:10.726Z,80.15
2019-06-07T00:53:05.637Z,80.20
2019-06-07T00:57:19.861Z,80.21
2019-06-07T01:02:28.292Z,80.38
2019-06-07T01:07:29.102Z,79.53
2019-06-07T01:12:32.334Z,80.03
2019-06-07T01:17:50.053Z,80.58
2019-06-07T01:22:39.364Z,80.75
2019-06-07T01:27:42.906Z,80.55
2019-06-07T01:32:45.874Z,80.56
2019-06-07T01:37:49.436Z,80.85
2019-06-07T01:42:52.407Z,81.06
2019-06-07T01:47:55.394Z,81.01
2019-06-07T01:52:58.308Z,81.43
2019-06-07T01:58:01.192Z,81.20
2019-06-07T02:03:04.513Z,82.36
2019-06-07T02:08:08.055Z,83.60
2019-06-07T02:13:11.379Z,82.85
2019-06-07T02:18:14.664Z,82.29
2019-06-07T02:23:17.931Z,82.43
2019-06-07T02:28:32.037Z,82.66
2019-06-07T02:33:31.115Z,82.79
2019-06-07T02:38:37.265Z,82.89
2019-06-07T02:43:37.572Z,82.08
2019-06-07T02:48:40.634Z,82.30
2019-06-07T02:53:43.680Z,81.99
2019-06-07T02:58:47.000Z,82.14
2019-06-07T03:03:50.322Z,82.71
2019-06-07T03:08:55.244Z,82.79
2019-06-07T03:14:00.576Z,82.51
2019-06-07T03:19:23.940Z,82.48
2019-06-07T03:24:30.063Z,82.46
2019-06-07T03:29:36.559Z,82.16
2019-06-07T03:34:43.315Z,82.33
2019-06-07T03:39:44.203Z,82.14
2019-06-07T03:44:47.442Z,82.51
2019-06-07T03:49:50.691Z,82.13
2019-06-07T03:54:53.957Z,81.74
2019-06-07T03:59:57.472Z,81.14
2019-06-07T04:05:00.425Z,81.41
2019-06-07T04:10:04.804Z,80.96
2019-06-07T04:15:08.654Z,81.00
2019-06-07T04:20:13.484Z,81.00
2019-06-07T04:25:16.696Z,81.97
2019-06-07T04:30:55.019Z,81.56
2019-06-07T04:35:58.971Z,81.53
2019-06-07T04:41:02.467Z,82.35
2019-06-07T04:46:05.775Z,82.34
2019-06-07T04:51:11.548Z,82.11
2019-06-07T04:56:14.805Z,81.79
2019-06-07T05:01:27.402Z,80.67
2019-06-07T05:06:22.903Z,79.12
2019-06-07T05:11:25.447Z,78.48
2019-06-07T05:16:30.465Z,77.92
2019-06-07T05:21:58.337Z,78.42
2019-06-07T05:26:42.848Z,79.10
2019-06-07T05:31:46.866Z,77.49
2019-06-07T05:37:10.595Z,76.66
2019-06-07T05:41:55.772Z,74.65
2019-06-07T05:46:59.338Z,74.45
2019-06-07T05:52:02.652Z,73.84
2019-06-07T05:57:05.975Z,72.33
2019-06-07T06:02:22.136Z,72.15
2019-06-07T06:07:14.610Z,72.04
2019-06-07T06:12:33.823Z,71.34
2019-06-07T06:17:23.109Z,72.29
2019-06-07T06:22:26.637Z,71.27
2019-06-07T06:28:03.414Z,71.07
2019-06-07T06:32:50.977Z,65.88
2019-06-07T06:37:42.425Z,67.80
2019-06-07T06:42:50.071Z,68.19
2019-06-07T06:47:52.176Z,67.18
2019-06-07T06:52:55.462Z,66.34
2019-06-07T06:57:58.814Z,67.81
2019-06-07T07:03:47.844Z,66.47
2019-06-07T07:08:06.944Z,66.07
2019-06-07T07:13:10.412Z,64.10
2019-06-07T07:18:13.412Z,66.93
2019-06-07T07:23:17.425Z,61.26
2019-06-07T07:28:21.164Z,59.32
2019-06-07T07:33:25.062Z,59.86
2019-06-07T07:38:28.301Z,57.97
2019-06-07T07:43:31.753Z,58.48
2019-06-07T07:48:34.658Z,56.02
2019-06-07T07:53:50.749Z,59.83
2019-06-07T07:58:42.768Z,58.31
2019-06-07T08:03:46.020Z,56.95
2019-06-07T08:08:51.219Z,57.78
2019-06-07T08:13:57.251Z,55.48
2019-06-07T08:19:03.890Z,55.88
2019-06-07T08:24:05.611Z,56.25
2019-06-07T08:29:08.588Z,55.88
2019-06-07T08:34:11.862Z,55.21
2019-06-07T08:39:21.416Z,56.05
2019-06-07T08:44:25.761Z,57.08
2019-06-07T08:49:28.916Z,56.81
2019-06-07T08:54:32.141Z,55.79
2019-06-07T08:59:34.676Z,54.88
2019-06-07T09:04:38.271Z,56.53
2019-06-07T09:09:41.662Z,56.14
2019-06-07T09:14:59.587Z,53.81
2019-06-07T09:19:50.253Z,56.62
2019-06-07T09:25:05.918Z,55.53
2019-06-07T09:30:07.687Z,56.39
2019-06-07T09:35:12.392Z,56.25
2019-06-07T09:40:24.853Z,52.81
2019-06-07T09:45:17.223Z,52.61
2019-06-07T09:50:20.127Z,53.24
2019-06-07T09:55:25.029Z,51.23
2019-06-07T10:00:43.785Z,52.42
2019-06-07T10:05:33.797Z,51.65
2019-06-07T10:10:35.985Z,51.18
2019-06-07T10:15:39.316Z,50.75
2019-06-07T10:20:42.593Z,51.03
2019-06-07T10:25:45.438Z,52.09
2019-06-07T10:30:48.433Z,49.30
2019-06-07T10:35:51.773Z,50.21
2019-06-07T10:40:55.008Z,49.91
2019-06-07T10:45:58.422Z,48.05
2019-06-07T10:51:02.227Z,50.97
2019-06-07T10:56:06.963Z,49.80
2019-06-07T11:01:12.390Z,51.27
2019-06-07T11:06:15.369Z,49.65
2019-06-07T11:11:18.880Z,51.07
2019-06-07T11:16:21.437Z,48.77
2019-06-07T11:21:24.575Z,50.55
2019-06-07T11:26:27.599Z,51.08
2019-06-07T11:31:30.777Z,51.17
2019-06-07T11:36:34.129Z,50.96
2019-06-07T11:41:37.164Z,49.92
2019-06-07T11:46:40.443Z,50.13
2019-06-07T11:51:43.387Z,50.14
2019-06-07T11:56:46.740Z,49.52
2019-06-07T12:01:49.627Z,48.78
2019-06-07T12:06:52.941Z,47.48
2019-06-07T12:11:56.049Z,47.16
2019-06-07T12:16:58.952Z,48.21
2019-06-07T12:22:02.268Z,46.49
2019-06-07T12:27:05.516Z,46.96
2019-06-07T12:32:09.101Z,45.97
2019-06-07T12:37:13.639Z,45.28
2019-06-07T12:42:18.553Z,45.69
2019-06-07T12:47:24.193Z,45.69
2019-06-07T12:52:27.813Z,44.48
2019-06-07T12:57:30.891Z,43.50
2019-06-07T13:02:34.193Z,46.15
2019-06-07T13:07:37.779Z,46.24
2019-06-07T13:12:44.184Z,46.63
2019-06-07T13:17:47.584Z,49.30
2019-06-07T13:22:50.928Z,50.25
2019-06-07T13:27:54.531Z,49.15
2019-06-07T13:32:58.099Z,48.41
2019-06-07T13:38:04.457Z,45.00
2019-06-07T13:43:07.767Z,47.15
2019-06-07T13:48:10.790Z,45.78
2019-06-07T13:53:14.415Z,46.78
2019-06-07T13:58:18.683Z,43.78
2019-06-07T14:03:29.309Z,45.65
2019-06-07T14:08:31.379Z,44.69
2019-06-07T14:13:35.026Z,44.37
2019-06-07T14:18:38.576Z,45.25
2019-06-07T14:23:48.728Z,45.59
2019-06-07T14:28:47.678Z,45.70
2019-06-07T14:33:50.617Z,44.51
2019-06-07T14:38:53.900Z,46.45
2019-06-07T14:43:57.242Z,47.29
2019-06-07T14:49:00.656Z,45.17
2019-06-07T14:54:04.545Z,45.17
2019-06-07T14:59:08.005Z,47.40
2019-06-07T15:04:11.523Z,45.46
2019-06-07T15:09:14.428Z,46.67
2019-06-07T15:14:17.724Z,45.73
2019-06-07T15:19:24.149Z,47.57
2019-06-07T15:24:28.113Z,47.64
2019-06-07T15:29:32.169Z,46.56
2019-06-07T15:34:36.334Z,46.56
2019-06-07T15:39:39.812Z,46.94
2019-06-07T15:44:43.119Z,45.21
2019-06-07T15:49:46.872Z,45.37
2019-06-07T15:54:49.974Z,46.50
2019-06-07T15:59:53.375Z,45.26
2019-06-07T16:04:55.944Z,43.66
2019-06-07T16:09:59.606Z,44.63
2019-06-07T16:15:03.426Z,45.84
2019-06-07T16:20:07.990Z,46.37
2019-06-07T16:25:11.053Z,48.24
2019-06-07T16:30:14.969Z,48.00
2019-06-07T16:35:18.473Z,47.28
2019-06-07T16:40:22.945Z,47.94
2019-06-07T16:45:26.372Z,47.08
2019-06-07T16:50:29.924Z,47.09
2019-06-07T16:55:33.256Z,49.56
2019-06-07T17:00:36.468Z,49.24
2019-06-07T17:05:40.487Z,48.23
2019-06-07T17:10:46.286Z,47.83
2019-06-07T17:15:49.600Z,52.07
2019-06-07T17:20:52.992Z,51.92
2019-06-07T17:25:56.282Z,51.92
2019-06-07T17:30:59.783Z,51.70
2019-06-07T17:36:03.419Z,51.94
2019-06-07T17:41:06.583Z,52.39
2019-06-07T17:46:12.717Z,54.64
2019-06-07T17:51:16.293Z,54.42
2019-06-07T17:56:19.605Z,55.20
2019-06-07T18:01:23.009Z,55.58
2019-06-07T18:06:27.861Z,54.88
2019-06-07T18:11:31.132Z,55.52
2019-06-07T18:16:34.433Z,56.20
2019-06-07T18:21:37.792Z,58.35
2019-06-07T18:26:40.771Z,60.18
2019-06-07T18:31:43.643Z,62.08
2019-06-07T18:36:47.007Z,63.41
2019-06-07T18:41:53.239Z,63.95
2019-06-07T18:46:57.076Z,64.74
2019-06-07T18:52:22.679Z,64.93
2019-06-07T18:57:25.967Z,65.45
2019-06-07T19:02:30.405Z,66.12
2019-06-07T19:07:33.733Z,66.54
2019-06-07T19:12:37.140Z,67.81
2019-06-07T19:17:40.055Z,67.06
2019-06-07T19:22:43.663Z,67.36
2019-06-07T19:27:46.970Z,68.10
2019-06-07T19:32:51.419Z,69.12
2019-06-07T19:37:55.758Z,69.50
2019-06-07T19:43:00.597Z,69.05
2019-06-07T19:48:04.594Z,69.58
2019-06-07T19:53:07.921Z,69.79
2019-06-07T19:58:11.253Z,69.64
2019-06-07T20:03:14.839Z,69.65
2019-06-07T20:08:17.467Z,69.66
2019-06-07T20:13:21.048Z,70.09
2019-06-07T20:18:27.779Z,69.72
2019-06-07T20:23:29.626Z,70.39
2019-06-07T20:28:32.252Z,70.73
2019-06-07T20:33:35.886Z,72.03
2019-06-07T20:38:39.547Z,71.94
2019-06-07T20:43:42.186Z,72.69
2019-06-07T20:48:45.949Z,73.43
2019-06-07T20:53:49.618Z,74.57
2019-06-07T20:58:52.889Z,74.46
2019-06-07T21:03:55.905Z,75.18
2019-06-07T21:08:59.338Z,76.07
2019-06-07T21:14:02.572Z,75.57
2019-06-07T21:19:06.353Z,76.51
2019-06-07T21:24:10.870Z,76.07
2019-06-07T21:29:14.581Z,76.40
2019-06-07T21:34:17.835Z,77.31
2019-06-07T21:39:21.080Z,77.35
2019-06-07T21:44:24.087Z,77.88
2019-06-07T21:49:27.341Z,78.81
2019-06-07T21:54:30.710Z,78.39
2019-06-07T21:59:34.148Z,79.87
2019-06-07T22:04:37.043Z,79.31
2019-06-07T22:09:39.947Z,79.28
2019-06-07T22:14:44.270Z,80.29
2019-06-07T22:19:47.805Z,80.71
2019-06-07T22:24:51.407Z,79.55
2019-06-07T22:29:54.681Z,78.27
2019-06-07T22:34:58.303Z,79.03
2019-06-07T22:40:01.760Z,80.98
2019-06-07T22:45:06.059Z,82.08
2019-06-07T22:50:11.326Z,86.81
2019-06-07T22:55:18.195Z,89.82
2019-06-07T23:00:21.919Z,92.43
2019-06-07T23:05:25.070Z,93.93
2019-06-07T23:10:28.287Z,93.46
2019-06-07T23:15:31.807Z,91.51
2019-06-07T23:20:35.029Z,90.51
2019-06-07T23:25:38.537Z,89.85
2019-06-07T23:30:41.490Z,91.58
2019-06-07T23:35:45.219Z,91.80
2019-06-07T23:40:48.223Z,91.12
2019-06-07T23:45:51.854Z,91.69
2019-06-07T23:50:55.510Z,92.26
2019-06-07T23:55:58.855Z,91.67
